createdAt,value
2022-12-11T00:02:26.827Z,25.30
2022-12-11T00:05:00.414Z,25.30
2022-12-11T00:07:34.023Z,25.30
2022-12-11T00:10:08.400Z,25.30
2022-12-11T00:12:43.336Z,25.40
2022-12-11T00:15:16.997Z,25.40
2022-12-11T00:17:50.555Z,25.30
2022-12-11T00:20:24.123Z,25.40
2022-12-11T00:22:57.719Z,25.30
2022-12-11T00:25:31.287Z,25.40
2022-12-11T00:28:06.311Z,25.30
2022-12-11T00:30:40.485Z,25.30
2022-12-11T00:33:14.609Z,25.30
2022-12-11T00:35:48.441Z,25.30
2022-12-11T00:38:24.235Z,25.30
2022-12-11T00:40:59.414Z,25.40
2022-12-11T00:43:34.499Z,25.30
2022-12-11T00:46:08.436Z,25.30
2022-12-11T00:48:42.085Z,25.30
2022-12-11T00:51:15.743Z,25.30
2022-12-11T00:53:49.686Z,25.30
2022-12-11T00:56:25.453Z,25.30
2022-12-11T00:59:00.723Z,25.30
2022-12-11T01:01:34.544Z,25.30
2022-12-11T01:04:08.184Z,25.30
2022-12-11T01:06:46.923Z,25.30
2022-12-11T01:09:52.310Z,25.30
2022-12-11T01:12:28.908Z,25.30
2022-12-11T01:15:08.853Z,25.30
2022-12-11T01:17:44.662Z,25.30
2022-12-11T01:20:18.333Z,25.30
2022-12-11T01:22:53.504Z,25.30
2022-12-11T01:25:28.152Z,25.30
2022-12-11T01:28:01.797Z,25.30
2022-12-11T01:30:37.316Z,25.30
2022-12-11T01:33:11.230Z,25.30
2022-12-11T01:35:45.037Z,25.30
2022-12-11T01:38:18.604Z,25.30
2022-12-11T01:40:52.548Z,25.30
2022-12-11T01:43:26.150Z,25.30
2022-12-11T01:46:01.326Z,25.30
2022-12-11T01:48:40.725Z,25.30
2022-12-11T01:51:19.085Z,25.30
2022-12-11T01:53:54.189Z,25.30
2022-12-11T01:56:28.228Z,25.30
2022-12-11T01:59:07.400Z,25.30
2022-12-11T02:01:44.431Z,25.30
2022-12-11T02:04:21.316Z,25.30
2022-12-11T02:06:55.031Z,25.30
2022-12-11T02:09:30.447Z,25.30
2022-12-11T02:12:08.979Z,25.30
2022-12-11T02:14:44.848Z,25.30
2022-12-11T02:17:22.974Z,25.30
2022-12-11T02:20:03.714Z,25.30
2022-12-11T02:22:45.707Z,25.30
2022-12-11T02:25:22.282Z,25.30
2022-12-11T02:27:58.574Z,25.30
2022-12-11T02:30:34.690Z,25.30
2022-12-11T02:33:08.874Z,25.30
2022-12-11T02:35:43.840Z,25.30
2022-12-11T02:38:18.670Z,25.30
2022-12-11T02:40:53.362Z,25.30
2022-12-11T02:43:27.012Z,25.30
2022-12-11T02:46:04.539Z,25.30
2022-12-11T02:48:38.398Z,25.30
2022-12-11T02:51:12.686Z,25.30
2022-12-11T02:53:46.608Z,25.30
2022-12-11T02:56:22.261Z,25.30
2022-12-11T02:58:58.944Z,25.30
2022-12-11T03:01:34.571Z,25.30
2022-12-11T03:04:08.247Z,25.30
2022-12-11T03:06:44.530Z,25.30
2022-12-11T03:09:18.557Z,25.30
2022-12-11T03:11:53.286Z,25.30
2022-12-11T03:14:26.983Z,25.30
2022-12-11T03:17:06.548Z,25.30
2022-12-11T03:19:42.090Z,25.30
2022-12-11T03:22:18.355Z,25.30
2022-12-11T03:24:54.051Z,25.30
2022-12-11T03:27:29.137Z,25.30
2022-12-11T03:30:07.722Z,25.30
2022-12-11T03:32:46.045Z,25.20
2022-12-11T03:35:22.562Z,25.30
2022-12-11T03:37:58.098Z,25.30
2022-12-11T03:40:34.145Z,25.30
2022-12-11T03:43:08.387Z,25.30
2022-12-11T03:45:42.668Z,25.30
2022-12-11T03:48:18.320Z,25.30
2022-12-11T03:50:52.142Z,25.30
2022-12-11T03:53:27.276Z,25.30
2022-12-11T03:56:01.955Z,25.30
2022-12-11T03:58:35.718Z,25.30
2022-12-11T04:01:10.166Z,25.30
2022-12-11T04:03:45.276Z,25.30
2022-12-11T04:06:18.958Z,25.30
2022-12-11T04:08:52.699Z,25.30
2022-12-11T04:11:35.639Z,25.30
2022-12-11T04:14:27.440Z,25.30
2022-12-11T04:17:01.843Z,25.30
2022-12-11T04:19:54.374Z,25.30
2022-12-11T04:22:45.366Z,25.30
2022-12-11T04:25:19.908Z,25.30
2022-12-11T04:27:53.550Z,25.20
2022-12-11T04:30:33.770Z,25.30
2022-12-11T04:33:07.880Z,25.30
2022-12-11T04:35:42.948Z,25.30
2022-12-11T04:38:16.611Z,25.20
2022-12-11T04:40:50.252Z,25.30
2022-12-11T04:43:23.914Z,25.30
2022-12-11T04:46:04.627Z,25.30
2022-12-11T04:48:38.702Z,25.30
2022-12-11T04:51:14.416Z,25.30
2022-12-11T04:53:47.994Z,25.30
2022-12-11T04:56:21.666Z,25.30
2022-12-11T04:58:55.233Z,25.30
2022-12-11T05:01:28.962Z,25.30
2022-12-11T05:04:02.610Z,25.30
2022-12-11T05:06:37.671Z,25.30
2022-12-11T05:09:12.284Z,25.20
2022-12-11T05:11:45.962Z,25.30
2022-12-11T05:14:19.854Z,25.30
2022-12-11T05:16:53.621Z,25.30
2022-12-11T05:19:27.652Z,25.30
2022-12-11T05:22:02.799Z,25.30
2022-12-11T05:24:36.471Z,25.30
2022-12-11T05:27:10.384Z,25.30
2022-12-11T05:29:44.106Z,25.30
2022-12-11T05:32:17.782Z,25.30
2022-12-11T05:34:51.685Z,25.30
2022-12-11T05:37:26.729Z,25.30
2022-12-11T05:40:00.397Z,25.30
2022-12-11T05:42:34.088Z,25.30
2022-12-11T05:45:08.330Z,25.30
2022-12-11T05:47:42.160Z,25.30
2022-12-11T05:50:15.994Z,25.30
2022-12-11T05:52:51.166Z,25.30
2022-12-11T05:55:24.814Z,25.30
2022-12-11T05:57:58.494Z,25.30
2022-12-11T06:00:35.991Z,25.20
2022-12-11T06:03:10.187Z,25.30
2022-12-11T06:05:44.375Z,25.30
2022-12-11T06:08:19.444Z,25.30
2022-12-11T06:10:53.306Z,25.20
2022-12-11T06:13:26.967Z,25.30
2022-12-11T06:16:01.951Z,25.20
2022-12-11T06:18:36.908Z,25.30
2022-12-11T06:21:14.888Z,25.30
2022-12-11T06:23:51.005Z,25.30
2022-12-11T06:26:24.963Z,25.30
2022-12-11T06:28:58.615Z,25.30
2022-12-11T06:31:32.315Z,25.30
2022-12-11T06:34:06.228Z,25.20
2022-12-11T06:36:39.872Z,25.30
2022-12-11T06:39:14.973Z,25.30
2022-12-11T06:41:48.860Z,25.30
2022-12-11T06:44:22.628Z,25.30
2022-12-11T06:46:56.327Z,25.20
2022-12-11T06:49:30.654Z,25.30
2022-12-11T06:52:04.298Z,25.30
2022-12-11T06:54:39.350Z,25.30
2022-12-11T06:57:13.240Z,25.30
2022-12-11T06:59:46.886Z,25.30
2022-12-11T07:02:21.262Z,25.20
2022-12-11T07:04:55.430Z,25.20
2022-12-11T07:07:29.164Z,25.30
2022-12-11T07:10:08.308Z,25.30
2022-12-11T07:12:42.342Z,25.30
2022-12-11T07:15:15.990Z,25.30
2022-12-11T07:17:49.746Z,25.30
2022-12-11T07:20:23.587Z,25.20
2022-12-11T07:22:57.473Z,25.30
2022-12-11T07:25:32.754Z,25.20
2022-12-11T07:28:06.569Z,25.30
2022-12-11T07:30:40.301Z,25.30
2022-12-11T07:33:13.974Z,25.20
2022-12-11T07:35:47.666Z,25.20
2022-12-11T07:38:21.498Z,25.30
2022-12-11T07:40:56.588Z,25.30
2022-12-11T07:43:30.321Z,25.20
2022-12-11T07:46:04.508Z,25.30
2022-12-11T07:48:38.548Z,25.30
2022-12-11T07:51:12.783Z,25.30
2022-12-11T07:53:46.777Z,25.20
2022-12-11T07:56:22.191Z,25.30
2022-12-11T07:58:55.911Z,25.20
2022-12-11T08:01:30.553Z,25.30
2022-12-11T08:04:05.306Z,25.20
2022-12-11T08:06:39.941Z,25.30
2022-12-11T08:09:21.092Z,25.20
2022-12-11T08:11:56.483Z,25.20
2022-12-11T08:14:30.058Z,25.20
2022-12-11T08:17:03.829Z,25.20
2022-12-11T08:19:37.513Z,25.20
2022-12-11T08:22:11.148Z,25.20
2022-12-11T08:24:45.122Z,25.20
2022-12-11T08:27:20.349Z,25.20
2022-12-11T08:29:54.070Z,25.20
2022-12-11T08:32:27.804Z,25.30
2022-12-11T08:35:01.485Z,25.30
2022-12-11T08:37:35.162Z,25.30
2022-12-11T08:40:10.961Z,25.30
2022-12-11T08:42:46.086Z,25.30
2022-12-11T08:45:19.764Z,25.30
2022-12-11T08:47:54.077Z,25.30
2022-12-11T08:50:27.843Z,25.30
2022-12-11T08:53:01.502Z,25.30
2022-12-11T08:55:35.358Z,25.30
2022-12-11T08:58:10.522Z,25.30
2022-12-11T09:00:44.219Z,25.30
2022-12-11T09:03:17.929Z,25.30
2022-12-11T09:05:51.916Z,25.20
2022-12-11T09:08:25.970Z,25.30
2022-12-11T09:11:03.693Z,25.30
2022-12-11T09:13:38.849Z,25.20
2022-12-11T09:16:13.185Z,25.20
2022-12-11T09:18:47.216Z,25.20
2022-12-11T09:21:21.793Z,25.20
2022-12-11T09:23:55.858Z,25.10
2022-12-11T09:26:30.739Z,24.90
2022-12-11T09:29:06.149Z,24.80
2022-12-11T09:31:39.756Z,24.80
2022-12-11T09:34:14.045Z,24.70
2022-12-11T09:36:48.208Z,24.70
2022-12-11T09:39:22.038Z,24.70
2022-12-11T09:41:58.444Z,24.60
2022-12-11T09:44:36.280Z,24.60
2022-12-11T09:47:20.009Z,24.60
2022-12-11T09:49:58.292Z,24.60
2022-12-11T09:52:36.001Z,24.60
2022-12-11T09:55:14.673Z,24.60
2022-12-11T09:57:51.659Z,24.60
2022-12-11T10:00:28.817Z,24.60
2022-12-11T10:03:22.899Z,24.60
2022-12-11T10:06:04.073Z,24.60
2022-12-11T10:08:46.352Z,24.60
2022-12-11T10:11:28.236Z,24.60
2022-12-11T10:14:05.383Z,24.60
2022-12-11T10:16:45.429Z,24.60
2022-12-11T10:19:20.822Z,24.60
2022-12-11T10:21:55.521Z,24.60
2022-12-11T10:25:09.986Z,24.60
2022-12-11T10:27:37.380Z,24.60
2022-12-11T10:30:16.265Z,24.60
2022-12-11T10:33:02.377Z,24.60
2022-12-11T10:35:37.837Z,24.60
2022-12-11T10:38:13.993Z,24.60
2022-12-11T10:40:48.689Z,24.60
2022-12-11T10:43:22.257Z,24.60
2022-12-11T10:45:56.193Z,24.60
2022-12-11T10:48:31.559Z,24.60
2022-12-11T10:51:07.240Z,24.60
2022-12-11T10:53:43.361Z,24.60
2022-12-11T10:56:17.102Z,24.60
2022-12-11T10:58:51.822Z,24.60
2022-12-11T11:01:26.192Z,24.70
2022-12-11T11:04:04.602Z,24.60
2022-12-11T11:06:38.263Z,24.60
2022-12-11T11:09:29.521Z,24.70
2022-12-11T11:12:07.907Z,24.70
2022-12-11T11:14:42.158Z,24.70
2022-12-11T11:17:16.510Z,24.70
2022-12-11T11:19:53.570Z,24.70
2022-12-11T11:22:27.881Z,24.70
2022-12-11T11:25:02.745Z,24.70
2022-12-11T11:27:38.423Z,24.70
2022-12-11T11:30:20.640Z,24.70
2022-12-11T11:32:55.931Z,24.70
2022-12-11T11:35:31.467Z,24.70
2022-12-11T11:38:07.343Z,24.70
2022-12-11T11:40:44.363Z,24.80
2022-12-11T11:43:20.302Z,24.80
2022-12-11T11:45:57.262Z,24.80
2022-12-11T11:48:37.243Z,24.80
2022-12-11T11:51:17.065Z,24.80
2022-12-11T11:53:51.933Z,24.80
2022-12-11T11:56:27.457Z,24.80
2022-12-11T11:59:12.685Z,24.80
2022-12-11T12:01:46.348Z,24.80
2022-12-11T12:04:20.051Z,24.80
2022-12-11T12:07:01.234Z,24.80
2022-12-11T12:09:39.731Z,24.80
2022-12-11T12:12:22.779Z,24.80
2022-12-11T12:15:03.482Z,24.80
2022-12-11T12:17:39.987Z,24.80
2022-12-11T12:20:18.937Z,24.80
2022-12-11T12:23:01.767Z,24.80
2022-12-11T12:25:39.507Z,24.80
2022-12-11T12:28:19.040Z,24.80
2022-12-11T12:30:59.544Z,24.80
2022-12-11T12:33:40.541Z,24.80
2022-12-11T12:36:18.636Z,24.90
2022-12-11T12:38:56.625Z,24.90
2022-12-11T12:41:37.389Z,24.80
2022-12-11T12:44:17.586Z,24.90
2022-12-11T12:46:55.105Z,24.90
2022-12-11T12:49:32.174Z,24.90
2022-12-11T12:52:07.579Z,24.90
2022-12-11T12:55:04.268Z,24.90
2022-12-11T12:57:38.636Z,24.90
2022-12-11T13:00:13.739Z,24.90
2022-12-11T13:02:51.778Z,25.00
2022-12-11T13:05:28.905Z,25.00
2022-12-11T13:08:03.959Z,25.00
2022-12-11T13:10:40.506Z,25.00
2022-12-11T13:13:34.651Z,25.00
2022-12-11T13:16:09.859Z,25.00
2022-12-11T13:18:44.720Z,25.00
2022-12-11T13:21:28.748Z,25.10
2022-12-11T13:24:17.714Z,25.10
2022-12-11T13:26:53.349Z,25.10
2022-12-11T13:29:30.672Z,25.10
2022-12-11T13:32:13.710Z,25.10
2022-12-11T13:34:52.751Z,25.10
2022-12-11T13:37:28.679Z,25.10
2022-12-11T13:40:04.677Z,25.10
2022-12-11T13:42:42.056Z,25.00
2022-12-11T13:45:20.423Z,25.10
2022-12-11T13:47:54.564Z,25.10
2022-12-11T13:50:32.985Z,25.10
2022-12-11T13:53:06.897Z,25.00
2022-12-11T13:55:40.748Z,25.10
2022-12-11T13:58:19.890Z,25.00
2022-12-11T14:00:55.521Z,25.10
2022-12-11T14:03:29.326Z,25.10
2022-12-11T14:06:03.369Z,25.10
2022-12-11T14:08:38.414Z,25.00
2022-12-11T14:11:19.436Z,25.00
2022-12-11T14:13:54.863Z,25.10
2022-12-11T14:16:28.989Z,25.00
2022-12-11T14:19:04.619Z,25.00
2022-12-11T14:21:38.727Z,25.00
2022-12-11T14:24:14.597Z,25.00
2022-12-11T14:26:51.886Z,25.00
2022-12-11T14:29:28.403Z,25.00
2022-12-11T14:32:04.070Z,25.00
2022-12-11T14:34:40.801Z,25.00
2022-12-11T14:37:15.995Z,25.00
2022-12-11T14:39:53.660Z,25.00
2022-12-11T14:42:28.733Z,25.00
2022-12-11T14:45:08.550Z,25.00
2022-12-11T14:47:43.694Z,25.00
2022-12-11T14:50:19.799Z,25.00
2022-12-11T14:52:54.648Z,25.00
2022-12-11T14:55:30.031Z,25.00
2022-12-11T14:58:05.370Z,25.00
2022-12-11T15:00:40.472Z,25.00
2022-12-11T15:03:23.376Z,25.00
2022-12-11T15:05:58.400Z,25.00
2022-12-11T15:08:32.904Z,25.00
2022-12-11T15:11:08.296Z,25.00
2022-12-11T15:13:49.359Z,25.00
2022-12-11T15:16:25.549Z,25.10
2022-12-11T15:19:00.001Z,25.10
2022-12-11T15:21:35.330Z,25.10
2022-12-11T15:24:22.441Z,25.00
2022-12-11T15:26:59.385Z,25.00
2022-12-11T15:29:35.334Z,25.00
2022-12-11T15:32:19.916Z,25.00
2022-12-11T15:34:54.282Z,25.00
2022-12-11T15:37:28.801Z,25.00
2022-12-11T15:40:03.524Z,25.00
2022-12-11T15:42:39.934Z,25.00
2022-12-11T15:45:23.128Z,25.00
2022-12-11T15:47:59.624Z,25.00
2022-12-11T15:50:33.393Z,25.00
2022-12-11T15:53:08.092Z,25.10
2022-12-11T15:55:42.162Z,25.10
2022-12-11T15:58:17.335Z,25.10
2022-12-11T16:00:51.966Z,25.10
2022-12-11T16:03:27.113Z,25.10
2022-12-11T16:06:00.887Z,25.10
2022-12-11T16:08:34.741Z,25.10
2022-12-11T16:11:10.362Z,25.10
2022-12-11T16:13:44.106Z,25.10
2022-12-11T16:16:17.917Z,25.10
2022-12-11T16:18:54.485Z,25.10
2022-12-11T16:21:28.646Z,25.10
2022-12-11T16:24:02.253Z,25.10
2022-12-11T16:26:36.084Z,25.10
2022-12-11T16:29:09.845Z,25.20
2022-12-11T16:31:44.137Z,25.10
2022-12-11T16:34:19.176Z,25.20
2022-12-11T16:36:55.052Z,25.20
2022-12-11T16:39:28.763Z,25.10
2022-12-11T16:42:02.332Z,25.20
2022-12-11T16:44:43.860Z,25.10
2022-12-11T16:47:17.823Z,25.20
2022-12-11T16:49:52.923Z,25.20
2022-12-11T16:52:26.804Z,25.20
2022-12-11T16:55:00.613Z,25.20
2022-12-11T16:57:34.889Z,25.20
2022-12-11T17:00:09.870Z,25.20
2022-12-11T17:02:43.886Z,25.20
2022-12-11T17:05:19.645Z,25.20
2022-12-11T17:07:53.376Z,25.20
2022-12-11T17:10:27.125Z,25.20
2022-12-11T17:13:00.789Z,25.20
2022-12-11T17:15:34.569Z,25.20
2022-12-11T17:18:08.456Z,25.20
2022-12-11T17:20:44.140Z,25.20
2022-12-11T17:23:17.749Z,25.20
2022-12-11T17:25:51.442Z,25.20
2022-12-11T17:28:25.093Z,25.20
2022-12-11T17:30:58.785Z,25.20
2022-12-11T17:33:32.383Z,25.20
2022-12-11T17:36:08.163Z,25.20
2022-12-11T17:38:41.907Z,25.20
2022-12-11T17:44:07.989Z,25.20
2022-12-11T17:46:41.652Z,25.20
2022-12-11T17:49:18.014Z,25.20
2022-12-11T17:51:53.120Z,25.20
2022-12-11T17:54:29.492Z,25.20
2022-12-11T17:57:04.090Z,25.20
2022-12-11T17:59:39.615Z,25.20
2022-12-11T18:02:16.221Z,25.20
2022-12-11T18:04:50.344Z,25.20
2022-12-11T18:07:25.362Z,25.20
2022-12-11T18:09:59.102Z,25.20
2022-12-11T18:12:33.046Z,25.20
2022-12-11T18:15:09.100Z,25.20
2022-12-11T18:17:45.241Z,25.20
2022-12-11T18:20:19.218Z,25.20
2022-12-11T18:22:53.258Z,25.20
2022-12-11T18:25:27.440Z,25.20
2022-12-11T18:28:01.289Z,25.20
2022-12-11T18:30:37.321Z,25.20
2022-12-11T18:33:11.348Z,25.20
2022-12-11T18:35:45.230Z,25.20
2022-12-11T18:38:18.927Z,25.20
2022-12-11T18:40:52.817Z,25.20
2022-12-11T18:43:26.645Z,25.20
2022-12-11T18:46:01.863Z,25.20
2022-12-11T18:48:35.764Z,25.20
2022-12-11T18:51:11.027Z,25.20
2022-12-11T18:53:45.130Z,25.30
2022-12-11T18:56:20.482Z,25.30
2022-12-11T18:58:54.879Z,25.20
2022-12-11T19:01:30.883Z,25.30
2022-12-11T19:04:10.422Z,25.30
2022-12-11T19:06:44.916Z,25.30
2022-12-11T19:09:18.796Z,25.30
2022-12-11T19:11:52.534Z,25.30
2022-12-11T19:14:26.192Z,25.30
2022-12-11T19:17:01.356Z,25.30
2022-12-11T19:19:36.052Z,25.30
2022-12-11T19:22:09.929Z,25.30
2022-12-11T19:24:43.740Z,25.30
2022-12-11T19:27:17.537Z,25.30
2022-12-11T19:29:51.249Z,25.30
2022-12-11T19:32:26.449Z,25.30
2022-12-11T19:35:00.236Z,25.30
2022-12-11T19:37:34.152Z,25.30
2022-12-11T19:40:09.720Z,25.30
2022-12-11T19:42:43.300Z,25.30
2022-12-11T19:45:16.901Z,25.30
2022-12-11T19:47:52.136Z,25.30
2022-12-11T19:50:25.792Z,25.30
2022-12-11T19:52:59.389Z,25.20
2022-12-11T19:55:33.079Z,25.30
2022-12-11T19:58:06.675Z,25.30
2022-12-11T20:00:40.496Z,25.30
2022-12-11T20:03:15.955Z,25.20
2022-12-11T20:05:49.584Z,25.20
2022-12-11T20:14:20.394Z,25.20
2022-12-11T20:17:11.996Z,25.20
2022-12-11T20:19:48.344Z,25.20
2022-12-11T20:22:22.798Z,25.20
2022-12-11T20:24:56.756Z,25.20
2022-12-11T20:27:32.847Z,25.20
2022-12-11T20:30:07.368Z,25.10
2022-12-11T20:32:41.080Z,25.20
2022-12-11T20:35:16.633Z,25.10
2022-12-11T20:37:50.349Z,25.10
2022-12-11T20:40:25.371Z,25.20
2022-12-11T20:42:59.284Z,25.20
2022-12-11T20:45:33.019Z,25.20
2022-12-11T20:48:07.160Z,25.20
2022-12-11T20:50:42.305Z,25.10
2022-12-11T20:53:16.014Z,25.10
2022-12-11T20:55:49.627Z,25.20
2022-12-11T20:58:23.494Z,25.20
2022-12-11T21:00:58.639Z,25.10
2022-12-11T21:03:41.795Z,25.10
2022-12-11T21:06:20.656Z,25.10
2022-12-11T21:08:54.402Z,25.10
2022-12-11T21:11:28.830Z,25.10
2022-12-11T21:14:02.662Z,25.10
2022-12-11T21:16:38.016Z,25.10
2022-12-11T21:19:16.493Z,25.10
2022-12-11T21:21:52.597Z,25.10
2022-12-11T21:24:27.633Z,25.10
2022-12-11T21:27:01.823Z,25.10
2022-12-11T21:29:35.449Z,25.10
2022-12-11T21:32:09.422Z,25.10
2022-12-11T21:34:43.293Z,25.10
2022-12-11T21:37:18.611Z,25.10
2022-12-11T21:39:52.853Z,25.10
2022-12-11T21:42:27.992Z,25.10
2022-12-11T21:47:55.276Z,25.10
2022-12-11T21:50:30.105Z,25.10
2022-12-11T21:53:05.329Z,25.10
2022-12-11T21:55:40.746Z,25.10
2022-12-11T21:58:14.495Z,25.10
2022-12-11T22:00:48.341Z,25.10
2022-12-11T22:03:22.191Z,25.10
2022-12-11T22:05:56.139Z,25.10
2022-12-11T22:08:31.353Z,25.10
2022-12-11T22:11:05.265Z,25.10
2022-12-11T22:13:39.014Z,25.10
2022-12-11T22:16:12.711Z,25.10
2022-12-11T22:18:46.899Z,25.10
2022-12-11T22:21:20.845Z,25.10
2022-12-11T22:23:56.150Z,25.10
2022-12-11T22:26:30.364Z,25.10
2022-12-11T22:29:04.270Z,25.10
2022-12-11T22:31:38.098Z,25.10
2022-12-11T22:34:11.850Z,25.10
2022-12-11T22:36:45.523Z,25.10
2022-12-11T22:39:20.807Z,25.00
2022-12-11T22:41:54.465Z,25.00
2022-12-11T22:44:28.103Z,25.00
2022-12-11T22:47:01.742Z,25.00
2022-12-11T22:49:36.824Z,25.00
2022-12-11T22:52:10.788Z,25.00
2022-12-11T22:54:46.897Z,25.00
2022-12-11T22:57:20.634Z,25.00
2022-12-11T22:59:54.395Z,25.00
2022-12-11T23:02:28.084Z,25.00
2022-12-11T23:05:01.781Z,25.00
2022-12-11T23:07:35.643Z,25.00
2022-12-11T23:10:12.028Z,25.00
2022-12-11T23:12:46.185Z,25.00
2022-12-11T23:15:19.944Z,25.00
2022-12-11T23:17:53.699Z,25.00
2022-12-11T23:20:27.202Z,25.00
2022-12-11T23:23:00.720Z,25.00
2022-12-11T23:25:35.745Z,25.00
2022-12-11T23:28:09.260Z,25.00
2022-12-11T23:30:44.559Z,25.00
2022-12-11T23:33:18.187Z,25.00
2022-12-11T23:35:51.795Z,25.00
2022-12-11T23:38:26.899Z,25.00
2022-12-11T23:41:02.514Z,25.00
2022-12-11T23:43:36.974Z,25.00
2022-12-11T23:46:13.423Z,25.00
2022-12-11T23:48:47.173Z,25.00
2022-12-11T23:51:21.306Z,25.00
2022-12-11T23:53:55.669Z,25.00
2022-12-11T23:56:31.722Z,25.00
2022-12-11T23:59:05.557Z,25.00
